createdAt,value
2019-05-16T00:02:28.489Z,9.25
2019-05-16T00:04:59.229Z,9.68
2019-05-16T00:07:28.803Z,10.50
2019-05-16T00:09:58.996Z,10.82
2019-05-16T00:12:29.136Z,9.73
2019-05-16T00:14:58.879Z,10.13
2019-05-16T00:17:28.601Z,10.08
2019-05-16T00:19:58.922Z,9.45
2019-05-16T00:22:28.819Z,9.65
2019-05-16T00:24:58.295Z,9.53
2019-05-16T00:27:28.187Z,9.35
2019-05-16T00:29:58.261Z,9.25
2019-05-16T00:32:28.166Z,8.98
2019-05-16T00:34:58.385Z,9.35
2019-05-16T00:37:28.987Z,9.55
2019-05-16T00:39:58.926Z,9.88
2019-05-16T00:42:28.738Z,9.63
2019-05-16T00:44:58.509Z,8.83
2019-05-16T00:47:28.470Z,8.63
2019-05-16T00:49:58.312Z,8.45
2019-05-16T00:52:28.870Z,8.38
2019-05-16T00:54:59.459Z,9.15
2019-05-16T00:57:29.998Z,8.63
2019-05-16T00:59:59.902Z,8.93
2019-05-16T01:02:29.951Z,9.03
2019-05-16T01:04:59.529Z,8.65
2019-05-16T01:07:29.034Z,8.10
2019-05-16T01:09:58.572Z,7.58
2019-05-16T01:12:28.483Z,7.42
2019-05-16T01:14:58.412Z,7.47
2019-05-16T01:17:28.477Z,7.17
2019-05-16T01:19:58.068Z,7.37
2019-05-16T01:22:28.997Z,7.37
2019-05-16T01:24:59.612Z,7.58
2019-05-16T01:27:29.150Z,7.67
2019-05-16T01:29:58.585Z,7.05
2019-05-16T01:32:29.141Z,7.45
2019-05-16T01:34:59.199Z,6.83
2019-05-16T01:37:28.750Z,6.97
2019-05-16T01:39:58.730Z,5.78
2019-05-16T01:42:28.314Z,5.58
2019-05-16T01:44:57.976Z,5.60
2019-05-16T01:47:28.812Z,5.10
2019-05-16T01:49:58.391Z,5.15
2019-05-16T01:52:29.062Z,5.05
2019-05-16T01:54:58.847Z,5.62
2019-05-16T01:57:29.346Z,5.62
2019-05-16T01:59:59.086Z,5.37
2019-05-16T02:02:29.011Z,5.45
2019-05-16T02:04:59.062Z,5.95
2019-05-16T02:07:28.726Z,5.80
2019-05-16T02:09:58.393Z,5.25
2019-05-16T02:12:28.077Z,5.42
2019-05-16T02:14:58.742Z,5.00
2019-05-16T02:17:29.029Z,4.85
2019-05-16T02:19:58.536Z,5.08
2019-05-16T02:22:28.527Z,5.00
2019-05-16T02:24:58.510Z,5.30
2019-05-16T02:27:28.684Z,5.25
2019-05-16T02:30:00.005Z,5.00
2019-05-16T02:32:31.280Z,4.37
2019-05-16T02:35:01.404Z,4.58
2019-05-16T02:37:34.792Z,4.60
2019-05-16T02:40:04.135Z,4.50
2019-05-16T02:42:33.644Z,4.45
2019-05-16T02:45:04.244Z,4.30
2019-05-16T02:47:35.055Z,4.20
2019-05-16T02:50:06.184Z,4.20
2019-05-16T02:52:35.644Z,4.33
2019-05-16T02:55:06.457Z,4.25
2019-05-16T02:57:35.904Z,4.20
2019-05-16T03:00:12.135Z,4.72
2019-05-16T03:02:42.409Z,4.58
2019-05-16T03:05:12.909Z,4.05
2019-05-16T03:07:47.402Z,4.50
2019-05-16T03:10:14.951Z,4.70
2019-05-16T03:12:45.737Z,4.40
2019-05-16T03:15:15.432Z,3.92
2019-05-16T03:17:46.707Z,3.90
2019-05-16T03:20:16.256Z,4.20
2019-05-16T03:22:51.740Z,3.75
2019-05-16T03:25:22.147Z,4.33
2019-05-16T03:27:51.312Z,4.95
2019-05-16T03:30:23.636Z,4.60
2019-05-16T03:32:54.868Z,4.47
2019-05-16T03:35:25.207Z,4.75
2019-05-16T03:37:59.740Z,4.50
2019-05-16T03:40:27.266Z,4.60
2019-05-16T03:43:01.092Z,4.95
2019-05-16T03:45:31.821Z,4.60
2019-05-16T03:48:02.729Z,4.62
2019-05-16T03:50:31.778Z,5.00
2019-05-16T03:53:01.790Z,4.67
2019-05-16T03:55:32.588Z,5.08
2019-05-16T03:58:02.377Z,4.35
2019-05-16T04:00:52.096Z,4.80
2019-05-16T04:03:21.650Z,5.28
2019-05-16T04:05:52.483Z,5.25
2019-05-16T04:08:25.113Z,5.17
2019-05-16T04:10:57.434Z,5.75
2019-05-16T04:13:27.051Z,5.17
2019-05-16T04:15:56.590Z,6.00
2019-05-16T04:18:26.081Z,5.70
2019-05-16T04:20:55.495Z,5.70
2019-05-16T04:23:25.032Z,5.78
2019-05-16T04:25:54.471Z,5.25
2019-05-16T04:28:24.017Z,5.03
2019-05-16T04:30:53.520Z,5.20
2019-05-16T04:33:22.988Z,5.37
2019-05-16T04:35:53.273Z,5.17
2019-05-16T04:38:34.904Z,5.03
2019-05-16T04:40:54.131Z,5.95
2019-05-16T04:43:23.583Z,5.50
2019-05-16T04:45:53.204Z,5.50
2019-05-16T04:48:23.579Z,5.55
2019-05-16T04:50:53.137Z,5.10
2019-05-16T04:53:22.678Z,5.35
2019-05-16T04:55:52.506Z,5.17
2019-05-16T04:58:23.780Z,4.85
2019-05-16T05:00:53.615Z,5.03
2019-05-16T05:03:23.331Z,5.25
2019-05-16T05:05:52.894Z,5.20
2019-05-16T05:08:22.633Z,4.85
2019-05-16T05:10:55.181Z,4.90
2019-05-16T05:13:24.715Z,4.65
2019-05-16T05:15:54.215Z,5.40
2019-05-16T05:18:23.786Z,5.60
2019-05-16T05:20:53.364Z,5.15
2019-05-16T05:23:22.832Z,4.90
2019-05-16T05:25:52.264Z,4.90
2019-05-16T05:28:21.775Z,5.00
2019-05-16T05:30:51.314Z,4.65
2019-05-16T05:33:21.365Z,4.72
2019-05-16T05:35:51.219Z,5.15
2019-05-16T05:38:21.852Z,5.12
2019-05-16T05:40:51.795Z,5.45
2019-05-16T05:43:22.187Z,5.35
2019-05-16T05:45:51.854Z,4.78
2019-05-16T05:48:22.230Z,4.90
2019-05-16T05:50:52.694Z,4.92
2019-05-16T05:53:22.240Z,5.22
2019-05-16T05:55:51.941Z,5.00
2019-05-16T05:58:21.715Z,5.90
2019-05-16T06:00:52.179Z,5.22
2019-05-16T06:03:23.042Z,5.20
2019-05-16T06:05:52.795Z,6.35
2019-05-16T06:08:22.359Z,6.05
2019-05-16T06:10:54.841Z,8.03
2019-05-16T06:13:24.384Z,9.18
2019-05-16T06:15:53.891Z,8.83
2019-05-16T06:18:23.512Z,11.75
2019-05-16T06:20:53.022Z,11.28
2019-05-16T06:23:22.583Z,11.38
2019-05-16T06:25:52.091Z,10.32
2019-05-16T06:28:22.599Z,9.48
2019-05-16T06:30:52.264Z,9.40
2019-05-16T06:33:21.791Z,9.80
2019-05-16T06:35:51.715Z,7.70
2019-05-16T06:38:21.438Z,9.98
2019-05-16T06:40:52.586Z,10.10
2019-05-16T06:43:22.058Z,6.37
2019-05-16T06:45:51.760Z,9.90
2019-05-16T06:48:21.666Z,9.40
2019-05-16T06:50:51.958Z,8.90
2019-05-16T06:53:21.627Z,8.80
2019-05-16T06:55:51.130Z,9.10
2019-05-16T06:58:22.158Z,8.83
2019-05-16T07:00:52.815Z,9.33
2019-05-16T07:03:22.573Z,10.43
2019-05-16T07:05:52.145Z,10.25
2019-05-16T07:08:21.755Z,9.68
2019-05-16T07:10:54.203Z,9.83
2019-05-16T07:13:23.840Z,10.13
2019-05-16T07:15:53.379Z,9.05
2019-05-16T07:18:23.892Z,10.35
2019-05-16T07:20:53.435Z,9.70
2019-05-16T07:23:23.020Z,9.90
2019-05-16T07:25:52.557Z,8.70
2019-05-16T07:28:22.059Z,9.40
2019-05-16T07:30:51.678Z,10.23
2019-05-16T07:33:21.534Z,9.65
2019-05-16T07:35:51.572Z,9.50
2019-05-16T07:38:21.231Z,9.03
2019-05-16T07:40:51.489Z,10.00
2019-05-16T07:43:21.123Z,9.78
2019-05-16T07:45:51.533Z,9.53
2019-05-16T07:48:22.142Z,8.83
2019-05-16T07:50:51.834Z,9.68
2019-05-16T07:53:22.340Z,9.15
2019-05-16T07:55:51.911Z,9.40
2019-05-16T07:58:22.238Z,10.30
2019-05-16T08:01:01.926Z,10.08
2019-05-16T08:03:23.168Z,9.60
2019-05-16T08:05:52.779Z,10.70
2019-05-16T08:08:24.065Z,11.48
2019-05-16T08:10:53.723Z,10.53
2019-05-16T08:13:23.171Z,9.83
2019-05-16T08:15:52.786Z,9.65
2019-05-16T08:18:22.391Z,9.08
2019-05-16T08:20:52.804Z,7.35
2019-05-16T08:23:23.000Z,7.85
2019-05-16T08:25:52.539Z,3.80
2019-05-16T08:28:22.160Z,2.05
2019-05-16T08:30:53.002Z,3.50
2019-05-16T08:33:22.747Z,3.30
2019-05-16T08:35:52.214Z,2.25
2019-05-16T08:38:22.050Z,2.35
2019-05-16T08:41:08.067Z,2.58
2019-05-16T08:43:23.656Z,2.75
2019-05-16T08:45:53.274Z,3.35
2019-05-16T08:48:23.576Z,3.25
2019-05-16T08:50:54.858Z,4.05
2019-05-16T08:53:25.535Z,2.90
2019-05-16T08:55:55.971Z,2.90
2019-05-16T08:58:25.511Z,3.27
2019-05-16T09:00:55.662Z,3.33
2019-05-16T09:03:25.355Z,3.50
2019-05-16T09:05:54.900Z,3.37
2019-05-16T09:08:25.483Z,3.10
2019-05-16T09:11:15.707Z,3.22
2019-05-16T09:13:27.950Z,3.40
2019-05-16T09:15:57.616Z,3.50
2019-05-16T09:18:28.975Z,4.95
2019-05-16T09:20:58.395Z,4.28
2019-05-16T09:23:27.998Z,3.00
2019-05-16T09:25:58.381Z,2.67
2019-05-16T09:28:28.616Z,3.55
2019-05-16T09:30:58.420Z,3.80
2019-05-16T09:33:27.851Z,4.80
2019-05-16T09:35:57.759Z,5.87
2019-05-16T09:38:28.643Z,5.40
2019-05-16T09:40:58.407Z,5.50
2019-05-16T09:43:28.307Z,6.40
2019-05-16T09:46:03.826Z,6.45
2019-05-16T09:48:30.071Z,7.08
2019-05-16T09:50:59.652Z,6.40
2019-05-16T09:53:29.274Z,6.37
2019-05-16T09:55:58.862Z,6.72
2019-05-16T09:58:28.531Z,6.45
2019-05-16T10:00:58.647Z,6.53
2019-05-16T10:03:28.149Z,6.67
2019-05-16T10:05:57.679Z,6.15
2019-05-16T10:08:28.169Z,7.08
2019-05-16T10:10:57.843Z,7.00
2019-05-16T10:13:28.007Z,5.65
2019-05-16T10:15:57.623Z,6.12
2019-05-16T10:18:27.991Z,6.15
2019-05-16T10:20:59.355Z,6.15
2019-05-16T10:23:28.722Z,5.97
2019-05-16T10:25:58.268Z,6.70
2019-05-16T10:28:27.924Z,7.00
2019-05-16T10:30:57.525Z,7.17
2019-05-16T10:33:27.708Z,6.75
2019-05-16T10:35:58.112Z,6.67
2019-05-16T10:38:28.705Z,7.15
2019-05-16T10:40:58.442Z,7.58
2019-05-16T10:43:27.943Z,7.03
2019-05-16T10:45:57.551Z,6.90
2019-05-16T10:48:27.248Z,7.28
2019-05-16T10:50:57.706Z,7.15
2019-05-16T10:53:52.248Z,7.42
2019-05-16T10:55:58.745Z,8.03
2019-05-16T10:58:36.951Z,7.40
2019-05-16T11:03:30.983Z,7.45
2019-05-16T11:06:05.815Z,7.58
2019-05-16T11:08:31.808Z,7.35
2019-05-16T11:11:01.351Z,7.50
2019-05-16T11:13:30.947Z,7.83
2019-05-16T11:16:00.418Z,8.23
2019-05-16T11:18:29.993Z,8.10
2019-05-16T11:20:59.527Z,8.58
2019-05-16T11:23:31.390Z,8.00
2019-05-16T11:26:00.963Z,7.72
2019-05-16T11:28:30.492Z,7.47
2019-05-16T11:31:03.505Z,7.67
2019-05-16T11:33:31.231Z,8.55
2019-05-16T11:36:00.815Z,7.97
2019-05-16T11:38:30.423Z,9.15
2019-05-16T11:40:59.898Z,8.85
2019-05-16T11:43:29.407Z,8.33
2019-05-16T11:45:59.019Z,9.08
2019-05-16T11:48:29.598Z,9.23
2019-05-16T11:50:59.247Z,8.73
2019-05-16T11:53:28.864Z,8.28
2019-05-16T11:56:01.703Z,7.72
2019-05-16T11:58:29.454Z,7.22
2019-05-16T12:01:00.068Z,7.05
2019-05-16T12:03:29.571Z,7.50
2019-05-16T12:05:59.115Z,8.15
2019-05-16T12:08:28.551Z,8.03
2019-05-16T12:11:17.890Z,7.33
2019-05-16T12:13:47.842Z,7.70
2019-05-16T12:16:18.845Z,7.92
2019-05-16T12:18:48.519Z,7.20
2019-05-16T12:21:18.135Z,7.75
2019-05-16T12:23:47.574Z,8.58
2019-05-16T12:26:17.736Z,8.20
2019-05-16T12:28:48.386Z,7.75
2019-05-16T12:31:17.897Z,7.40
2019-05-16T12:33:47.963Z,7.05
2019-05-16T12:36:17.806Z,7.55
2019-05-16T12:38:47.395Z,7.58
2019-05-16T12:41:16.985Z,7.50
2019-05-16T12:43:52.655Z,7.50
2019-05-16T12:46:18.719Z,7.03
2019-05-16T12:48:48.315Z,7.30
2019-05-16T12:51:17.851Z,7.25
2019-05-16T12:53:47.918Z,6.60
2019-05-16T12:56:17.756Z,6.65
2019-05-16T12:58:49.192Z,6.30
2019-05-16T13:01:20.698Z,5.95
2019-05-16T13:03:49.788Z,6.90
2019-05-16T13:06:19.334Z,6.72
2019-05-16T13:08:48.823Z,6.90
2019-05-16T13:11:18.432Z,7.20
2019-05-16T13:14:02.412Z,7.90
2019-05-16T13:16:20.759Z,7.22
2019-05-16T13:18:50.371Z,6.78
2019-05-16T13:21:22.972Z,7.00
2019-05-16T13:23:51.164Z,6.85
2019-05-16T13:26:20.663Z,6.78
2019-05-16T13:28:50.203Z,6.75
2019-05-16T13:31:19.699Z,6.72
2019-05-16T13:33:49.319Z,7.15
2019-05-16T13:36:18.812Z,7.78
2019-05-16T13:38:48.419Z,6.53
2019-05-16T13:41:18.455Z,6.70
2019-05-16T13:43:48.096Z,6.15
2019-05-16T13:46:17.596Z,6.00
2019-05-16T13:48:47.196Z,6.87
2019-05-16T13:51:18.996Z,6.40
2019-05-16T13:53:47.799Z,7.22
2019-05-16T13:56:17.795Z,7.30
2019-05-16T13:58:47.430Z,7.05
2019-05-16T14:01:17.311Z,6.65
2019-05-16T14:03:48.360Z,6.75
2019-05-16T14:06:18.649Z,6.97
2019-05-16T14:08:48.379Z,5.95
2019-05-16T14:11:17.847Z,6.72
2019-05-16T14:13:47.355Z,6.03
2019-05-16T14:16:18.034Z,6.30
2019-05-16T14:18:47.753Z,5.55
2019-05-16T14:21:18.190Z,5.85
2019-05-16T14:23:53.429Z,6.20
2019-05-16T14:26:19.212Z,6.75
2019-05-16T14:28:49.270Z,6.50
2019-05-16T14:31:19.907Z,6.28
2019-05-16T14:33:50.586Z,6.53
2019-05-16T14:36:21.203Z,6.47
2019-05-16T14:38:50.823Z,6.67
2019-05-16T14:41:22.119Z,7.15
2019-05-16T14:43:51.667Z,6.60
2019-05-16T14:46:22.225Z,6.15
2019-05-16T14:48:51.772Z,6.35
2019-05-16T14:51:21.350Z,6.30
2019-05-16T14:53:50.972Z,6.05
2019-05-16T14:56:20.536Z,6.10
2019-05-16T14:58:50.148Z,6.03
2019-05-16T15:01:19.753Z,6.58
2019-05-16T15:03:49.359Z,5.95
2019-05-16T15:06:18.896Z,5.67
2019-05-16T15:08:48.446Z,6.40
2019-05-16T15:11:18.219Z,6.10
2019-05-16T15:13:47.763Z,6.53
2019-05-16T15:16:17.276Z,6.28
2019-05-16T15:18:47.614Z,5.83
2019-05-16T15:21:18.176Z,6.45
2019-05-16T15:23:47.697Z,6.37
2019-05-16T15:26:18.201Z,5.85
2019-05-16T15:28:51.061Z,6.85
2019-05-16T15:31:19.132Z,6.85
2019-05-16T15:33:49.646Z,5.67
2019-05-16T15:36:19.263Z,5.60
2019-05-16T15:38:48.819Z,6.10
2019-05-16T15:41:18.319Z,5.70
2019-05-16T15:43:47.860Z,5.85
2019-05-16T15:46:17.527Z,5.65
2019-05-16T15:48:48.804Z,6.75
2019-05-16T15:51:21.324Z,6.37
2019-05-16T15:53:51.351Z,6.65
2019-05-16T15:56:20.959Z,6.55
2019-05-16T15:58:50.558Z,7.33
2019-05-16T16:01:20.109Z,6.00
2019-05-16T16:03:49.755Z,5.70
2019-05-16T16:06:19.372Z,4.08
2019-05-16T16:08:48.908Z,4.72
2019-05-16T16:11:18.587Z,4.62
2019-05-16T16:13:48.536Z,4.47
2019-05-16T16:16:19.242Z,3.92
2019-05-16T16:18:48.848Z,3.72
2019-05-16T16:21:19.324Z,4.10
2019-05-16T16:23:49.100Z,4.78
2019-05-16T16:26:18.699Z,3.98
2019-05-16T16:28:48.271Z,7.75
2019-05-16T16:31:17.882Z,4.45
2019-05-16T16:33:47.520Z,3.60
2019-05-16T16:36:17.280Z,3.75
2019-05-16T16:38:47.684Z,3.60
2019-05-16T16:41:18.367Z,4.75
2019-05-16T16:43:47.975Z,6.70
2019-05-16T16:46:17.598Z,13.15
2019-05-16T16:48:47.251Z,4.22
2019-05-16T16:51:17.668Z,4.00
2019-05-16T16:53:47.462Z,4.58
2019-05-16T16:56:17.040Z,8.53
2019-05-16T16:58:46.799Z,13.80
2019-05-16T17:01:17.577Z,8.98
2019-05-16T17:03:47.192Z,13.13
2019-05-16T17:06:17.650Z,8.40
2019-05-16T17:08:47.616Z,4.80
2019-05-16T17:11:17.091Z,4.65
2019-05-16T17:13:47.227Z,4.30
2019-05-16T17:16:25.749Z,3.67
2019-05-16T17:18:48.231Z,4.85
2019-05-16T17:21:17.819Z,22.80
2019-05-16T17:23:47.371Z,5.45
2019-05-16T17:26:16.891Z,5.05
2019-05-16T17:28:46.875Z,4.58
2019-05-16T17:31:16.900Z,3.92
2019-05-16T17:33:47.511Z,4.22
2019-05-16T17:36:17.359Z,4.00
2019-05-16T17:38:46.943Z,3.75
2019-05-16T17:41:16.919Z,3.90
2019-05-16T17:43:46.915Z,3.40
2019-05-16T17:46:16.589Z,3.45
2019-05-16T17:48:46.809Z,3.60
2019-05-16T17:51:16.899Z,3.60
2019-05-16T17:53:46.575Z,3.60
2019-05-16T17:56:17.339Z,3.42
2019-05-16T17:58:46.819Z,3.58
2019-05-16T18:01:17.086Z,4.10
2019-05-16T18:03:47.872Z,4.90
2019-05-16T18:06:17.520Z,4.05
2019-05-16T18:08:47.194Z,5.10
2019-05-16T18:11:17.880Z,3.85
2019-05-16T18:13:47.432Z,3.95
2019-05-16T18:16:16.872Z,3.62
2019-05-16T18:18:46.877Z,3.90
2019-05-16T18:21:16.971Z,3.98
2019-05-16T18:23:47.226Z,3.77
2019-05-16T18:26:17.306Z,4.30
2019-05-16T18:28:46.980Z,4.40
2019-05-16T18:31:17.252Z,4.97
2019-05-16T18:33:47.134Z,4.40
2019-05-16T18:36:17.072Z,3.67
2019-05-16T18:38:46.800Z,3.58
2019-05-16T18:41:16.668Z,3.55
2019-05-16T18:43:47.214Z,3.30
2019-05-16T18:46:16.855Z,3.80
2019-05-16T18:48:47.223Z,3.25
2019-05-16T18:51:16.988Z,3.70
2019-05-16T18:53:46.654Z,3.40
2019-05-16T18:56:16.798Z,4.33
2019-05-16T18:58:46.738Z,4.40
2019-05-16T19:01:17.561Z,5.30
2019-05-16T19:03:49.014Z,6.12
2019-05-16T19:06:18.652Z,6.90
2019-05-16T19:08:48.259Z,7.15
2019-05-16T19:11:17.870Z,7.65
2019-05-16T19:13:47.642Z,8.83
2019-05-16T19:16:17.167Z,8.93
2019-05-16T19:18:46.854Z,9.45
2019-05-16T19:21:16.973Z,9.00
2019-05-16T19:23:46.645Z,9.20
2019-05-16T19:26:16.753Z,10.05
2019-05-16T19:28:46.785Z,9.40
2019-05-16T19:31:17.174Z,9.70
2019-05-16T19:33:48.870Z,9.63
2019-05-16T19:36:18.056Z,9.93
2019-05-16T19:38:47.747Z,9.70
2019-05-16T19:41:17.283Z,9.65
2019-05-16T19:43:46.829Z,10.23
2019-05-16T19:46:16.410Z,9.45
2019-05-16T19:48:46.456Z,8.80
2019-05-16T19:51:16.405Z,8.63
2019-05-16T19:53:47.088Z,7.78
2019-05-16T19:56:17.919Z,7.90
2019-05-16T19:58:47.510Z,8.70
2019-05-16T20:01:17.152Z,8.00
2019-05-16T20:03:47.236Z,7.92
2019-05-16T20:06:17.857Z,7.58
2019-05-16T20:08:47.635Z,8.20
2019-05-16T20:11:17.537Z,7.75
2019-05-16T20:13:47.457Z,7.62
2019-05-16T20:16:18.501Z,8.10
2019-05-16T20:18:48.301Z,8.43
2019-05-16T20:21:18.523Z,7.33
2019-05-16T20:23:48.259Z,7.35
2019-05-16T20:26:17.755Z,7.75
2019-05-16T20:28:47.579Z,7.72
2019-05-16T20:31:17.248Z,7.30
2019-05-16T20:33:46.989Z,7.20
2019-05-16T20:36:17.345Z,7.35
2019-05-16T20:38:47.226Z,6.90
2019-05-16T20:41:17.197Z,7.35
2019-05-16T20:43:47.498Z,7.30
2019-05-16T20:46:17.269Z,5.90
2019-05-16T20:48:47.869Z,6.08
2019-05-16T20:51:20.033Z,5.67
2019-05-16T20:53:49.720Z,6.12
2019-05-16T20:56:19.555Z,5.75
2019-05-16T20:58:49.255Z,6.20
2019-05-16T21:01:18.831Z,6.08
2019-05-16T21:03:48.482Z,5.10
2019-05-16T21:06:20.080Z,5.65
2019-05-16T21:08:49.815Z,5.67
2019-05-16T21:11:20.399Z,5.92
2019-05-16T21:13:50.025Z,6.15
2019-05-16T21:16:19.671Z,6.35
2019-05-16T21:18:49.382Z,6.47
2019-05-16T21:21:19.428Z,5.92
2019-05-16T21:23:50.067Z,5.80
2019-05-16T21:26:19.741Z,6.35
2019-05-16T21:28:49.325Z,6.28
2019-05-16T21:31:19.476Z,6.15
2019-05-16T21:33:49.034Z,6.62
2019-05-16T21:36:19.012Z,7.12
2019-05-16T21:38:49.770Z,6.60
2019-05-16T21:41:19.411Z,6.42
2019-05-16T21:43:49.502Z,6.83
2019-05-16T21:46:20.237Z,7.35
2019-05-16T21:48:49.869Z,7.42
2019-05-16T21:51:19.855Z,7.75
2019-05-16T21:53:49.271Z,7.15
2019-05-16T21:56:18.803Z,6.90
2019-05-16T21:58:49.084Z,7.70
2019-05-16T22:01:21.931Z,7.70
2019-05-16T22:03:52.076Z,7.45
2019-05-16T22:06:22.755Z,7.90
2019-05-16T22:08:52.267Z,8.28
2019-05-16T22:11:21.738Z,8.00
2019-05-16T22:13:52.787Z,7.72
2019-05-16T22:16:22.461Z,8.38
2019-05-16T22:18:52.031Z,8.55
2019-05-16T22:21:21.646Z,7.20
2019-05-16T22:23:51.219Z,7.33
2019-05-16T22:26:20.998Z,7.20
2019-05-16T22:28:50.562Z,6.95
2019-05-16T22:31:21.140Z,7.22
2019-05-16T22:33:50.744Z,7.50
2019-05-16T22:36:20.363Z,7.60
2019-05-16T22:38:49.978Z,7.62
2019-05-16T22:41:19.587Z,7.70
2019-05-16T22:43:49.203Z,7.85
2019-05-16T22:46:18.876Z,7.50
2019-05-16T22:48:48.420Z,6.90
2019-05-16T22:51:18.029Z,7.08
2019-05-16T22:53:47.503Z,7.10
2019-05-16T22:56:17.453Z,7.45
2019-05-16T22:58:47.423Z,7.25
2019-05-16T23:01:17.606Z,7.22
2019-05-16T23:03:47.275Z,6.67
2019-05-16T23:06:16.895Z,6.33
2019-05-16T23:08:47.499Z,6.00
2019-05-16T23:11:17.032Z,5.70
2019-05-16T23:13:46.631Z,5.47
2019-05-16T23:16:17.384Z,5.30
2019-05-16T23:18:47.085Z,5.75
2019-05-16T23:21:17.051Z,5.50
2019-05-16T23:23:46.641Z,5.72
2019-05-16T23:26:16.750Z,5.90
2019-05-16T23:28:47.391Z,5.30
2019-05-16T23:31:16.892Z,5.80
2019-05-16T23:33:47.019Z,5.85
2019-05-16T23:36:17.530Z,6.30
2019-05-16T23:38:47.483Z,6.10
2019-05-16T23:41:17.356Z,5.42
2019-05-16T23:43:47.377Z,6.15
2019-05-16T23:46:16.904Z,5.72
2019-05-16T23:48:47.191Z,6.17
2019-05-16T23:51:17.148Z,5.75
2019-05-16T23:53:47.984Z,6.30
2019-05-16T23:56:19.503Z,6.25
2019-05-16T23:58:49.199Z,6.30
